Las Palmas de Gran Canaria, Spain

01:11 AM WET on Februari 22, 2018 (GMT +0000)
Tejeda, Lomo de los Santos | | Change Station

Elev 3609 ft 28.00 °N, 15.61 °W | Updated 0 second ago

Mestadels molnigt
Mestadels molnigt
43.5 °F
Feels Like 44 °F
N
1.2
Vind Växlande Vind from Nordlig
Gusts 2.3 miles/tim

Idag
High -- | Low -- °F
--% Chance of Precip.
Yesterday
High -- | Low -- °F
Precip. -- tum
Lufttryck 29.92 tum
Sikt 6.2 miles
Molnigt
Vindavkylning 44 °F
Daggpunkt 38 °F
Luftfuktighet 82%
Rainfall 0.05 tum
Snow Depth Not available.
7:34 AM 6:58 PM
Första kvarteret, 36% visible
METAR GCXO 220100Z AUTO 26003KT 9999 NCD 10/09 Q1013
Lufttryck 29.92 tum
Sikt 6.2 miles
Molnigt
Vindavkylning 44 °F
Daggpunkt 38 °F
Luftfuktighet 82%
Rainfall 0.05 tum
Snow Depth Not available.
7:34 AM 6:58 PM
Första kvarteret, 36% visible
METAR GCXO 220100Z AUTO 26003KT 9999 NCD 10/09 Q1013

Get Severe Weather Alerts

Thanks for signing up!

Be on the lookout for a verification email in your inbox.

You'll start receiving the daily forecast at 6 AM.

×

10-Day Weather Forecast

×

Almanac

Astronomi

Feb. 22, 2018 Rise Set
Actual Time
Civil Twilight
Nautical Twilight
Astronomical Twilight
Månen
Length Of Visible Light
Dagens längd
Tomorrow will be .
, % of the Moon is Illuminated

Today's Extremes

Country Highs Country Lows

Community

WunderPhotos

Category 6

Welcome to Category 6. This is the collective home for Weather Underground's featured writeups by Dr. Jeff Masters (right), Bob Henson (left), Chris Burt, and other regular contributors.

Nearby

Air Quality

  Air Quality AQ Index Pollutant
Not available.

Snödjup

Station Depth Elevation

Earthquake Activity

Stad Distance Mag. Time & Date
Minimum magnitude displayed is 2.5.

Coastal Water Temperatures

Plats Temperatur

Stations

Nearby Weather Stations

Station Location Temp Vindavkylning Daggpunkt Luftfuktighet Vind Precip. Elev Uppdaterad Type